createdAt,value
2023-02-28T13:45:49.256Z,77.69165
2023-02-28T13:46:47.751Z,77.69165
2023-02-28T13:47:46.683Z,77.789307
2023-02-28T13:48:47.741Z,77.789307
2023-02-28T13:49:46.684Z,77.789307
2023-02-28T13:50:46.724Z,77.789307
2023-02-28T13:51:47.325Z,77.789307
2023-02-28T13:52:49.181Z,77.752686
2023-02-28T13:53:49.092Z,77.856445
2023-02-28T13:54:47.799Z,77.856445
2023-02-28T13:55:46.658Z,77.856445
2023-02-28T13:56:46.889Z,77.856445
2023-02-28T13:57:47.683Z,77.856445
2023-02-28T13:58:48.610Z,77.856445
2023-02-28T13:59:47.677Z,77.856445
2023-02-28T14:00:46.438Z,77.856445
2023-02-28T14:01:47.499Z,77.856445
2023-02-28T14:02:47.570Z,77.752686
2023-02-28T14:03:48.604Z,77.752686
2023-02-28T14:04:48.897Z,77.752686
2023-02-28T14:05:46.482Z,77.752686
2023-02-28T14:06:47.563Z,77.618408
2023-02-28T14:07:47.631Z,77.618408
2023-02-28T14:08:47.466Z,77.514648
2023-02-28T14:09:48.477Z,77.514648
2023-02-28T14:10:47.429Z,77.416992
2023-02-28T14:11:47.366Z,77.319336
2023-02-28T14:12:47.362Z,77.319336
2023-02-28T14:13:47.481Z,77.215576
2023-02-28T14:14:46.362Z,77.215576
2023-02-28T14:15:46.507Z,77.11792
2023-02-28T14:16:47.408Z,77.081299
2023-02-28T14:17:47.368Z,76.983643
2023-02-28T14:18:48.539Z,76.879883
2023-02-28T14:19:46.339Z,76.879883
2023-02-28T14:20:48.234Z,76.782227
2023-02-28T14:21:46.379Z,76.782227
2023-02-28T14:22:46.385Z,76.68457
2023-02-28T14:23:46.592Z,76.580811
2023-02-28T14:24:47.267Z,76.580811
